createdAt,value
2024-02-22T00:01:55.810Z,-18468.00
2024-02-22T00:06:57.450Z,-18469.00
2024-02-22T00:11:58.311Z,-18469.00
2024-02-22T00:16:59.376Z,-18471.00
2024-02-22T00:22:00.229Z,-18471.00
2024-02-22T00:27:01.390Z,-18473.00
2024-02-22T00:32:02.246Z,-18475.00
2024-02-22T00:37:03.276Z,-18473.00
2024-02-22T00:42:05.982Z,-18473.00
2024-02-22T00:47:06.969Z,-18474.00
2024-02-22T00:52:09.212Z,-18474.00
2024-02-22T00:57:10.756Z,-18476.00
2024-02-22T01:02:11.609Z,-18476.00
2024-02-22T01:07:12.502Z,-18477.00
2024-02-22T01:12:13.419Z,-18480.00
2024-02-22T01:17:14.644Z,-18479.00
2024-02-22T01:22:15.813Z,-18481.00
2024-02-22T01:27:16.993Z,-18480.00
2024-02-22T01:32:17.807Z,-18481.00
2024-02-22T01:37:18.740Z,-18483.00
2024-02-22T01:42:19.555Z,-18481.00
2024-02-22T01:47:20.852Z,-18482.00
2024-02-22T01:52:22.256Z,-18483.00
2024-02-22T01:57:23.323Z,-18485.00
2024-02-22T02:02:24.638Z,-18483.00
2024-02-22T02:07:26.486Z,-18485.00
2024-02-22T02:12:27.271Z,-18484.00
2024-02-22T02:17:28.759Z,-18486.00
2024-02-22T02:22:51.080Z,-18488.00
2024-02-22T02:27:52.901Z,-18488.00
2024-02-22T02:32:53.881Z,-18488.00
2024-02-22T02:37:58.315Z,-18487.00
2024-02-22T02:42:59.138Z,-18487.00
2024-02-22T02:48:00.216Z,-18488.00
2024-02-22T02:53:01.167Z,-18489.00
2024-02-22T02:58:03.019Z,-18489.00
2024-02-22T03:03:03.809Z,-18490.00
2024-02-22T03:08:05.580Z,-18490.00
2024-02-22T03:13:11.725Z,-18490.00
2024-02-22T03:18:13.484Z,-18490.00
2024-02-22T03:23:14.444Z,-18491.00
2024-02-22T03:28:16.570Z,-18492.00
2024-02-22T03:33:17.488Z,-18492.00
2024-02-22T03:38:19.758Z,-18491.00
2024-02-22T03:43:20.880Z,-18491.00
2024-02-22T03:48:22.295Z,-18490.00
2024-02-22T03:53:23.161Z,-18493.00
2024-02-22T03:58:24.008Z,-18492.00
2024-02-22T04:03:25.919Z,-18493.00
2024-02-22T04:08:26.728Z,-18493.00
2024-02-22T04:13:27.630Z,-18493.00
2024-02-22T04:18:28.652Z,-18494.00
2024-02-22T04:23:29.553Z,-18493.00
2024-02-22T04:28:30.353Z,-18492.00
2024-02-22T04:33:33.016Z,-18493.00
2024-02-22T04:38:33.898Z,-18493.00
2024-02-22T04:43:34.993Z,-18495.00
2024-02-22T04:48:36.033Z,-18494.00
2024-02-22T04:53:36.938Z,-18494.00
2024-02-22T04:58:38.209Z,-18494.00
2024-02-22T05:03:40.088Z,-18496.00
2024-02-22T05:08:40.926Z,-18497.00
2024-02-22T05:13:42.994Z,-18496.00
2024-02-22T05:18:44.129Z,-18498.00
2024-02-22T05:23:44.983Z,-18497.00
2024-02-22T05:28:45.837Z,-18497.00
2024-02-22T05:33:46.739Z,-18498.00
2024-02-22T05:38:48.378Z,-18497.00
2024-02-22T05:43:49.206Z,-18496.00
2024-02-22T05:48:50.443Z,-18496.00
2024-02-22T05:53:52.320Z,-18496.00
2024-02-22T05:58:53.189Z,-18498.00
2024-02-22T06:03:54.045Z,-18499.00
2024-02-22T06:08:54.912Z,-18497.00
2024-02-22T06:13:55.792Z,-18498.00
2024-02-22T06:18:56.839Z,-18500.00
2024-02-22T06:23:57.966Z,-18500.00
2024-02-22T06:28:58.872Z,-18501.00
2024-02-22T06:34:01.034Z,-18501.00
2024-02-22T06:39:01.858Z,-18500.00
2024-02-22T06:44:02.783Z,-18501.00
2024-02-22T06:49:04.637Z,-18503.00
2024-02-22T06:54:06.104Z,-18501.00
2024-02-22T06:59:07.233Z,-18501.00
2024-02-22T07:04:10.311Z,-18501.00
2024-02-22T07:09:12.217Z,-18500.00
2024-02-22T07:14:13.200Z,-18502.00
2024-02-22T07:19:14.441Z,-18502.00
2024-02-22T07:24:17.258Z,-18502.00
2024-02-22T07:29:18.374Z,-18503.00
2024-02-22T07:34:20.381Z,-18503.00
2024-02-22T07:39:21.379Z,-18503.00
2024-02-22T07:44:22.367Z,-18506.00
2024-02-22T07:49:23.341Z,-18507.00
2024-02-22T07:54:24.776Z,-18507.00
2024-02-22T07:59:26.008Z,-18510.00
2024-02-22T08:04:27.322Z,-18510.00
2024-02-22T08:09:28.171Z,-18509.00
2024-02-22T08:14:28.977Z,-18512.00
2024-02-22T08:19:30.166Z,-18515.00
2024-02-22T08:24:31.036Z,-18512.00
2024-02-22T08:29:31.869Z,-18514.00
2024-02-22T08:34:33.092Z,-18513.00
2024-02-22T08:39:34.362Z,-18514.00
2024-02-22T08:44:35.229Z,-18516.00
2024-02-22T08:49:36.420Z,-18516.00
2024-02-22T08:54:38.811Z,-18517.00
2024-02-22T08:59:39.630Z,-18517.00
2024-02-22T09:04:40.529Z,-18518.00
2024-02-22T09:09:41.403Z,-18519.00
2024-02-22T09:14:42.252Z,-18524.00
2024-02-22T09:19:43.216Z,-18523.00
2024-02-22T09:24:46.156Z,-18524.00
2024-02-22T09:29:46.956Z,-18525.00
2024-02-22T09:34:48.223Z,-18526.00
2024-02-22T09:39:51.232Z,-18530.00
2024-02-22T09:44:52.146Z,-18533.00
2024-02-22T09:49:54.516Z,-18533.00
2024-02-22T09:54:55.363Z,-18535.00
2024-02-22T09:59:56.270Z,-18536.00
2024-02-22T10:04:57.871Z,-18537.00
2024-02-22T10:09:59.015Z,-18538.00
2024-02-22T10:15:00.278Z,-18540.00
2024-02-22T10:20:10.152Z,-18540.00
2024-02-22T10:25:14.502Z,-18542.00
2024-02-22T10:30:17.926Z,-18543.00
2024-02-22T10:35:19.777Z,-18547.00
2024-02-22T10:40:21.113Z,-18548.00
2024-02-22T10:45:22.020Z,-18549.00
2024-02-22T10:50:31.640Z,-18550.00
2024-02-22T10:55:35.055Z,-18552.00
2024-02-22T11:00:36.326Z,-18555.00
2024-02-22T11:05:40.249Z,-18558.00
2024-02-22T11:10:44.071Z,-18559.00
2024-02-22T11:15:44.925Z,-18559.00
2024-02-22T11:20:45.955Z,-18557.00
2024-02-22T11:25:46.756Z,-18559.00
2024-02-22T11:30:48.565Z,-18558.00
2024-02-22T11:35:54.541Z,-18560.00
2024-02-22T11:41:03.535Z,-18558.00
2024-02-22T11:46:06.896Z,-18559.00
2024-02-22T11:51:08.072Z,-18558.00
2024-02-22T11:56:08.861Z,-18557.00
2024-02-22T12:01:10.269Z,-18559.00
2024-02-22T12:06:14.588Z,-18557.00
2024-02-22T12:11:15.830Z,-18557.00
2024-02-22T12:16:19.277Z,-18555.00
2024-02-22T12:21:27.061Z,-18555.00
2024-02-22T12:26:28.187Z,-18555.00
2024-02-22T12:31:29.162Z,-18554.00
2024-02-22T12:36:29.973Z,-18552.00
2024-02-22T12:41:30.846Z,-18552.00
2024-02-22T12:46:33.710Z,-18548.00
2024-02-22T12:51:34.760Z,-18548.00
2024-02-22T12:56:35.802Z,-18547.00
2024-02-22T13:01:39.398Z,-18547.00
2024-02-22T13:06:40.733Z,-18545.00
2024-02-22T13:11:41.718Z,-18545.00
2024-02-22T13:16:42.842Z,-18545.00
2024-02-22T13:21:44.184Z,-18546.00
2024-02-22T13:26:45.002Z,-18549.00
2024-02-22T13:31:45.869Z,-18549.00
2024-02-22T13:36:46.716Z,-18551.00
2024-02-22T13:41:47.562Z,-18550.00
2024-02-22T13:46:49.613Z,-18549.00
2024-02-22T13:51:53.888Z,-18552.00
2024-02-22T13:56:56.826Z,-18553.00
2024-02-22T14:01:58.226Z,-18552.00
2024-02-22T14:07:01.064Z,-18549.00
2024-02-22T14:12:03.133Z,-18549.00
2024-02-22T14:17:04.200Z,-18549.00
2024-02-22T14:22:05.380Z,-18549.00
2024-02-22T14:27:13.506Z,-18547.00
2024-02-22T14:32:15.420Z,-18548.00
2024-02-22T14:37:16.252Z,-18547.00
2024-02-22T14:42:18.429Z,-18547.00
2024-02-22T14:47:19.360Z,-18546.00
2024-02-22T14:52:21.476Z,-18546.00
2024-02-22T14:57:23.480Z,-18543.00
2024-02-22T15:02:25.287Z,-18543.00
2024-02-22T15:07:28.073Z,-18543.00
2024-02-22T15:12:29.210Z,-18541.00
2024-02-22T15:17:30.870Z,-18540.00
2024-02-22T15:22:32.573Z,-18541.00
2024-02-22T15:27:37.974Z,-18541.00
2024-02-22T15:32:39.657Z,-18541.00
2024-02-22T15:37:40.695Z,-18541.00
2024-02-22T15:42:41.751Z,-18542.00
2024-02-22T15:47:42.628Z,-18541.00
2024-02-22T15:52:43.852Z,-18542.00
2024-02-22T15:57:44.690Z,-18542.00
2024-02-22T16:02:45.604Z,-18543.00
2024-02-22T16:07:47.150Z,-18546.00
2024-02-22T16:12:48.130Z,-18548.00
2024-02-22T16:17:48.914Z,-18547.00
2024-02-22T16:22:50.196Z,-18548.00
2024-02-22T16:27:50.966Z,-18547.00
2024-02-22T16:32:51.944Z,-18547.00
2024-02-22T16:37:54.016Z,-18551.00
2024-02-22T16:42:55.223Z,-18550.00
2024-02-22T16:47:56.085Z,-18549.00
2024-02-22T16:52:57.131Z,-18549.00
2024-02-22T16:57:58.008Z,-18549.00
2024-02-22T17:02:58.832Z,-18549.00
2024-02-22T17:07:59.730Z,-18549.00
2024-02-22T17:13:00.598Z,-18550.00
2024-02-22T17:18:03.782Z,-18549.00
2024-02-22T17:23:04.821Z,-18551.00
2024-02-22T17:28:07.776Z,-18553.00
2024-02-22T17:33:08.624Z,-18554.00
2024-02-22T17:38:10.220Z,-18553.00
2024-02-22T17:43:12.716Z,-18555.00
2024-02-22T17:48:15.196Z,-18556.00
2024-02-22T17:53:16.983Z,-18555.00
2024-02-22T17:58:17.873Z,-18558.00
2024-02-22T18:03:18.975Z,-18557.00
2024-02-22T18:08:19.913Z,-18554.00
2024-02-22T18:13:20.794Z,-18553.00
2024-02-22T18:18:22.538Z,-18556.00
2024-02-22T18:23:23.818Z,-18558.00
2024-02-22T18:28:25.113Z,-18556.00
2024-02-22T18:33:27.542Z,-18553.00
2024-02-22T18:38:31.069Z,-18548.00
2024-02-22T18:43:32.325Z,-18548.00
2024-02-22T18:48:33.206Z,-18550.00
2024-02-22T18:53:35.490Z,-18550.00
2024-02-22T18:58:36.687Z,-18549.00
2024-02-22T19:03:37.614Z,-18551.00
2024-02-22T19:08:38.473Z,-18551.00
2024-02-22T19:13:42.678Z,-18555.00
2024-02-22T19:18:43.665Z,-18553.00
2024-02-22T19:23:44.722Z,-18552.00
2024-02-22T19:28:45.616Z,-18554.00
2024-02-22T19:33:48.033Z,-18556.00
2024-02-22T19:38:48.834Z,-18554.00
2024-02-22T19:43:51.864Z,-18553.00
2024-02-22T19:48:53.222Z,-18551.00
2024-02-22T19:53:54.201Z,-18549.00
2024-02-22T19:58:59.538Z,-18548.00
2024-02-22T20:04:00.560Z,-18536.00
2024-02-22T20:09:01.539Z,-18519.00
2024-02-22T20:14:05.620Z,-18512.00
2024-02-22T20:19:08.197Z,-18506.00
2024-02-22T20:24:09.070Z,-18498.00
2024-02-22T20:29:10.505Z,-18494.00
2024-02-22T20:34:11.317Z,-18490.00
2024-02-22T20:39:12.316Z,-18487.00
2024-02-22T20:44:13.160Z,-18481.00
2024-02-22T20:49:14.623Z,-18482.00
2024-02-22T20:54:15.523Z,-18480.00
2024-02-22T20:59:17.494Z,-18478.00
2024-02-22T21:04:19.607Z,-18476.00
2024-02-22T21:09:21.140Z,-18473.00
2024-02-22T21:14:24.114Z,-18471.00
2024-02-22T21:19:24.965Z,-18469.00
2024-02-22T21:24:26.045Z,-18469.00
2024-02-22T21:29:26.964Z,-18468.00
2024-02-22T21:34:27.925Z,-18467.00
2024-02-22T21:39:29.861Z,-18466.00
2024-02-22T21:44:32.452Z,-18465.00
2024-02-22T21:49:33.488Z,-18463.00
2024-02-22T21:54:34.723Z,-18463.00
2024-02-22T21:59:36.572Z,-18459.00
2024-02-22T22:04:37.385Z,-18458.00
2024-02-22T22:09:38.235Z,-18455.00
2024-02-22T22:14:39.035Z,-18454.00
2024-02-22T22:19:39.898Z,-18453.00
2024-02-22T22:24:40.931Z,-18451.00
2024-02-22T22:29:41.961Z,-18448.00
2024-02-22T22:34:42.804Z,-18446.00
2024-02-22T22:39:43.677Z,-18444.00
2024-02-22T22:44:44.592Z,-18442.00
2024-02-22T22:49:45.572Z,-18441.00
2024-02-22T22:54:46.612Z,-18440.00
2024-02-22T22:59:48.329Z,-18441.00
2024-02-22T23:04:52.530Z,-18438.00
2024-02-22T23:09:53.358Z,-18435.00
2024-02-22T23:14:54.883Z,-18429.00
2024-02-22T23:19:55.714Z,-18420.00
2024-02-22T23:25:00.322Z,-18416.00
2024-02-22T23:30:01.290Z,-18416.00
2024-02-22T23:35:02.224Z,-18415.00
2024-02-22T23:40:04.023Z,-18416.00
2024-02-22T23:45:05.494Z,-18416.00
2024-02-22T23:50:07.533Z,-18418.00
2024-02-22T23:55:08.669Z,-18416.00
